FNLU/LAD METAR and TAF weather

Enter ICAO airport designator
Station Type Date Time Source
FNLU METAR 2018/07/21 11:00 UTC NOAA

FNLU 211100Z 27004KT 9000 BKN020 23/18 Q1014


Station Type Date Time Source
FNLU Decoded METAR 2018/07/21 11:00 UTC NOAA

Luanda, Angola (FNLU) 08-51S 013-14E 70M
Jul 21, 2018 - 07:00 AM EDT / 2018.07.21 1100 UTC
Wind: from the W (270 degrees) at 5 MPH (4 KT):0
Visibility: 5 mile(s):0
Sky conditions: mostly cloudy
Temperature: 73 F (23 C)
Dew Point: 64 F (18 C)
Relative Humidity: 73%
Pressure (altimeter): 29.94 in. Hg (1014 hPa)
ob: FNLU 211100Z 27004KT 9000 BKN020 23/18 Q1014
cycle: 11

Station Type Date Time Source
FNLU TAF 2018/07/21 12:03 UTC NOAA

TAF FNLU 211100Z 2112/2218 27012KT 9000 SCT020
TEMPO 2113/2117 CAVOK
BECMG 2119/2121 21006KT SCT020
TEMPO 2203/2207 VRB03KT 3000 BR BKN018


Example: see airport list